createdAt,value
2023-03-29T12:25:39.579Z,2.00
2023-03-29T12:44:16.793Z,1.75
2023-03-29T13:05:02.278Z,1.75
2023-03-29T13:07:47.293Z,1.45
2023-03-29T13:10:38.348Z,1.50
2023-03-29T13:13:21.157Z,2.00
2023-03-29T13:15:54.975Z,1.85
2023-03-29T13:18:49.086Z,1.63
2023-03-29T13:21:51.771Z,1.58
2023-03-29T13:25:04.494Z,1.52
2023-03-29T13:27:57.683Z,1.65
2023-03-29T13:30:58.755Z,2.60
2023-03-29T13:33:59.111Z,2.10
2023-03-29T13:37:02.109Z,3.38
2023-03-29T14:05:50.191Z,1.90
2023-03-29T14:08:35.809Z,3.28
2023-03-29T14:11:15.927Z,2.50
2023-03-29T14:17:35.224Z,2.08
2023-03-29T14:23:50.226Z,2.00
2023-03-29T14:26:30.934Z,1.63
2023-03-29T14:29:04.092Z,2.25
2023-03-29T14:31:40.357Z,1.38
2023-03-29T14:34:30.312Z,2.00
2023-03-29T14:37:01.416Z,2.85
2023-03-29T14:40:06.196Z,1.73
2023-03-29T14:42:34.972Z,2.30
2023-03-29T14:45:13.852Z,2.00
2023-03-29T14:47:48.153Z,3.15
2023-03-29T14:50:32.106Z,2.53
2023-03-29T14:53:06.457Z,2.67
2023-03-29T14:55:44.070Z,2.03
2023-03-29T15:01:57.073Z,2.20
2023-03-29T15:04:41.117Z,2.92
2023-03-29T15:07:36.941Z,2.28
2023-03-29T15:10:25.781Z,2.00
2023-03-29T15:13:01.308Z,2.22
2023-03-29T15:16:00.455Z,2.58
2023-03-29T15:18:53.506Z,2.38
2023-03-29T15:21:28.173Z,2.33
2023-03-29T15:24:33.412Z,2.20
2023-03-29T15:27:19.710Z,2.17
2023-03-29T15:29:59.404Z,2.90
2023-03-29T21:15:41.750Z,4.18
2023-03-29T21:18:17.320Z,4.15
2023-03-29T21:20:53.476Z,3.97
2023-03-29T21:23:25.082Z,3.85
2023-03-29T21:25:56.332Z,4.68
2023-03-29T21:28:34.164Z,3.50
2023-03-29T21:31:26.621Z,3.95
2023-03-29T21:33:57.179Z,4.28
2023-03-29T21:36:27.780Z,4.22
2023-03-29T21:39:09.003Z,3.50
2023-03-29T21:41:41.823Z,3.08
2023-03-29T21:44:13.198Z,4.68
2023-03-29T21:46:59.339Z,2.95
2023-03-29T21:49:30.251Z,3.65
2023-03-29T21:52:03.532Z,3.58
2023-03-29T21:54:37.334Z,4.13
2023-03-29T21:57:14.753Z,3.92
2023-03-29T21:59:45.363Z,3.33
2023-03-29T22:02:31.099Z,3.67
2023-03-29T22:05:01.886Z,3.58
2023-03-29T22:07:35.397Z,4.45
2023-03-29T22:10:11.843Z,4.35
2023-03-29T22:12:43.886Z,4.47
2023-03-29T22:15:19.548Z,4.50
2023-03-29T22:17:53.210Z,4.10
2023-03-29T22:24:27.591Z,3.80
2023-03-29T22:26:58.138Z,2.95
2023-03-29T22:29:34.542Z,3.58
2023-03-29T22:32:05.413Z,3.78
2023-03-29T22:34:36.143Z,3.63
2023-03-29T22:37:06.665Z,4.13
2023-03-29T22:39:42.339Z,5.30
2023-03-29T22:42:12.871Z,4.63
2023-03-29T22:44:48.507Z,4.45
2023-03-29T22:47:19.974Z,4.05
2023-03-29T22:49:50.423Z,5.53
2023-03-29T22:52:20.899Z,5.07
2023-03-29T22:54:55.881Z,4.78
2023-03-29T22:57:26.531Z,4.90
2023-03-29T22:59:57.038Z,5.13
2023-03-29T23:02:27.678Z,4.38
2023-03-29T23:04:58.151Z,5.15
2023-03-29T23:07:29.136Z,4.75
2023-03-29T23:10:08.226Z,4.45
2023-03-29T23:12:54.016Z,4.65
2023-03-29T23:15:24.562Z,4.65
2023-03-29T23:17:55.697Z,5.18
2023-03-29T23:20:26.090Z,5.32
2023-03-29T23:22:56.612Z,5.82
2023-03-29T23:25:40.206Z,4.78
2023-03-29T23:28:13.755Z,5.60
2023-03-29T23:31:05.852Z,4.63
2023-03-29T23:33:41.740Z,4.78
2023-03-29T23:36:15.895Z,5.13
2023-03-29T23:38:52.836Z,4.20
2023-03-29T23:41:23.362Z,5.47
2023-03-29T23:43:58.022Z,4.63
2023-03-29T23:46:28.584Z,5.20
2023-03-29T23:49:05.650Z,5.63
2023-03-29T23:51:37.110Z,5.80
2023-03-29T23:54:07.439Z,5.57
2023-03-29T23:56:40.077Z,5.88
2023-03-29T23:59:11.028Z,5.78
